createdAt,value
2023-01-22T00:00:06.065Z,28.00
2023-01-22T00:02:36.066Z,28.50
2023-01-22T00:05:04.009Z,24.95
2023-01-22T00:07:30.723Z,26.08
2023-01-22T00:09:57.482Z,23.30
2023-01-22T00:12:24.079Z,28.05
2023-01-22T00:14:52.728Z,28.30
2023-01-22T00:17:19.573Z,25.08
2023-01-22T00:19:46.190Z,29.80
2023-01-22T00:22:12.866Z,32.25
2023-01-22T00:24:42.220Z,30.42
2023-01-22T00:27:09.286Z,27.98
2023-01-22T00:29:35.884Z,29.48
2023-01-22T00:32:02.781Z,24.10
2023-01-22T00:34:29.967Z,27.95
2023-01-22T00:36:56.555Z,26.98
2023-01-22T00:39:23.361Z,26.98
2023-01-22T00:41:50.099Z,26.20
2023-01-22T00:44:16.990Z,27.52
2023-01-22T00:46:43.660Z,29.52
2023-01-22T00:49:11.201Z,28.13
2023-01-22T00:51:39.332Z,24.60
2023-01-22T00:54:06.470Z,24.30
2023-01-22T00:56:33.154Z,30.58
2023-01-22T00:58:59.741Z,30.23
2023-01-22T01:01:26.502Z,24.85
2023-01-22T01:03:53.106Z,25.60
2023-01-22T01:06:21.554Z,28.73
2023-01-22T01:08:49.103Z,28.20
2023-01-22T01:11:18.883Z,29.50
2023-01-22T01:13:45.601Z,27.05
2023-01-22T01:16:27.933Z,27.90
2023-01-22T01:19:01.470Z,26.35
2023-01-22T01:21:28.704Z,23.13
2023-01-22T01:23:56.703Z,27.45
2023-01-22T01:26:24.136Z,26.33
2023-01-22T01:28:52.575Z,23.27
2023-01-22T01:31:20.536Z,31.98
2023-01-22T01:33:47.340Z,23.67
2023-01-22T01:36:35.425Z,30.33
2023-01-22T01:39:06.537Z,25.98
2023-01-22T01:41:33.156Z,23.02
2023-01-22T01:44:06.834Z,25.17
2023-01-22T01:46:38.270Z,23.05
2023-01-22T01:49:06.178Z,20.75
2023-01-22T01:51:36.026Z,23.00
2023-01-22T01:54:04.972Z,21.77
2023-01-22T01:56:37.663Z,24.15
2023-01-22T01:59:07.221Z,24.83
2023-01-22T02:01:34.007Z,20.73
2023-01-22T02:04:01.368Z,27.45
2023-01-22T02:06:28.324Z,26.60
2023-01-22T02:08:56.127Z,23.95
2023-01-22T02:11:23.687Z,23.02
2023-01-22T02:14:04.895Z,25.05
2023-01-22T02:16:31.923Z,21.45
2023-01-22T02:18:58.680Z,24.20
2023-01-22T02:21:38.076Z,22.33
2023-01-22T02:24:13.880Z,23.42
2023-01-22T02:26:42.025Z,23.38
2023-01-22T02:29:12.578Z,19.00
2023-01-22T02:31:41.055Z,19.58
2023-01-22T02:34:09.434Z,20.48
2023-01-22T02:36:37.761Z,21.50
2023-01-22T02:39:04.744Z,21.25
2023-01-22T02:41:32.010Z,21.15
2023-01-22T02:43:58.645Z,19.73
2023-01-22T02:46:25.956Z,18.42
2023-01-22T02:48:52.896Z,17.67
2023-01-22T02:51:19.558Z,21.20
2023-01-22T02:53:46.192Z,18.25
2023-01-22T02:56:12.859Z,17.95
2023-01-22T02:58:39.633Z,19.80
2023-01-22T03:01:21.335Z,17.85
2023-01-22T03:03:49.236Z,15.82
2023-01-22T03:06:21.818Z,16.83
2023-01-22T03:08:49.988Z,15.70
2023-01-22T03:11:16.728Z,15.85
2023-01-22T03:14:01.973Z,16.92
2023-01-22T03:16:47.305Z,16.75
2023-01-22T03:19:32.698Z,16.27
2023-01-22T03:21:59.307Z,15.30
2023-01-22T03:24:26.110Z,16.42
2023-01-22T03:26:52.922Z,17.13
2023-01-22T03:29:19.623Z,15.75
2023-01-22T03:31:49.346Z,14.95
2023-01-22T03:34:20.968Z,14.70
2023-01-22T03:36:48.188Z,16.15
2023-01-22T03:39:15.126Z,15.10
2023-01-22T03:41:41.783Z,13.93
2023-01-22T03:44:11.983Z,14.13
2023-01-22T03:46:42.291Z,13.95
2023-01-22T03:49:09.677Z,14.10
2023-01-22T03:51:36.975Z,12.88
2023-01-22T03:54:04.106Z,13.02
2023-01-22T03:56:31.666Z,11.85
2023-01-22T03:58:58.448Z,12.70
2023-01-22T04:01:27.925Z,12.93
2023-01-22T04:03:54.929Z,11.63
2023-01-22T04:06:23.019Z,12.88
2023-01-22T04:08:51.597Z,13.70
2023-01-22T04:11:18.644Z,12.40
2023-01-22T04:13:46.021Z,12.55
2023-01-22T04:16:13.940Z,10.30
2023-01-22T04:18:42.014Z,11.18
2023-01-22T04:21:10.903Z,12.95
2023-01-22T04:23:37.576Z,12.20
2023-01-22T04:26:04.281Z,12.88
2023-01-22T04:28:31.067Z,12.50
2023-01-22T04:30:57.902Z,11.27
2023-01-22T04:33:24.649Z,11.90
2023-01-22T04:35:52.775Z,12.10
2023-01-22T04:38:19.908Z,12.25
2023-01-22T04:40:46.587Z,11.45
2023-01-22T04:43:13.270Z,10.65
2023-01-22T04:45:39.983Z,11.38
2023-01-22T04:48:08.404Z,11.48
2023-01-22T04:50:35.395Z,12.38
2023-01-22T04:53:02.393Z,13.00
2023-01-22T04:55:29.929Z,12.98
2023-01-22T04:57:58.462Z,14.20
2023-01-22T05:00:28.351Z,13.02
2023-01-22T05:02:59.996Z,12.10
2023-01-22T05:05:28.070Z,18.42
2023-01-22T05:07:57.367Z,11.18
2023-01-22T05:10:24.600Z,12.63
2023-01-22T05:12:51.613Z,11.95
2023-01-22T05:15:24.469Z,11.98
2023-01-22T05:17:52.771Z,12.40
2023-01-22T05:20:20.218Z,11.85
2023-01-22T05:22:47.017Z,12.52
2023-01-22T05:25:13.642Z,11.02
2023-01-22T05:27:40.484Z,11.55
2023-01-22T05:30:07.740Z,11.20
2023-01-22T05:32:34.363Z,11.50
2023-01-22T05:35:00.964Z,11.63
2023-01-22T05:37:32.326Z,12.05
2023-01-22T05:39:58.985Z,11.00
2023-01-22T05:42:25.584Z,10.85
2023-01-22T05:44:52.411Z,10.75
2023-01-22T05:47:19.042Z,12.07
2023-01-22T05:49:45.790Z,11.57
2023-01-22T05:52:12.448Z,11.30
2023-01-22T05:54:39.745Z,11.82
2023-01-22T05:57:07.288Z,11.73
2023-01-22T05:59:34.530Z,12.60
2023-01-22T06:02:01.836Z,11.93
2023-01-22T06:04:28.773Z,11.65
2023-01-22T06:06:55.690Z,11.68
2023-01-22T06:09:22.746Z,10.70
2023-01-22T06:11:49.498Z,12.88
2023-01-22T06:14:16.310Z,12.68
2023-01-22T06:16:42.962Z,11.98
2023-01-22T06:19:09.748Z,11.95
2023-01-22T06:21:36.366Z,12.05
2023-01-22T06:24:03.077Z,11.52
2023-01-22T06:26:29.680Z,11.02
2023-01-22T06:28:56.335Z,12.93
2023-01-22T06:31:23.123Z,12.38
2023-01-22T06:33:49.853Z,12.65
2023-01-22T06:36:16.536Z,12.75
2023-01-22T06:38:43.149Z,11.88
2023-01-22T06:41:10.054Z,12.65
2023-01-22T06:43:37.688Z,13.52
2023-01-22T06:46:05.220Z,12.90
2023-01-22T06:48:31.891Z,13.50
2023-01-22T06:50:59.753Z,15.60
2023-01-22T06:53:26.874Z,12.85
2023-01-22T06:55:53.530Z,13.35
2023-01-22T06:58:20.115Z,13.00
2023-01-22T07:00:46.747Z,13.50
2023-01-22T07:03:13.563Z,13.77
2023-01-22T07:05:40.139Z,13.55
2023-01-22T07:08:06.753Z,12.43
2023-01-22T07:10:33.495Z,14.00
2023-01-22T07:13:00.161Z,13.40
2023-01-22T07:15:26.928Z,14.30
2023-01-22T07:17:55.004Z,14.38
2023-01-22T07:20:23.132Z,13.23
2023-01-22T07:22:50.692Z,18.30
2023-01-22T07:25:18.227Z,16.88
2023-01-22T07:27:44.959Z,13.75
2023-01-22T07:30:12.093Z,12.38
2023-01-22T07:32:38.787Z,17.05
2023-01-22T07:35:05.734Z,13.65
2023-01-22T07:37:33.375Z,13.38
2023-01-22T07:40:00.120Z,13.32
2023-01-22T07:42:26.726Z,12.60
2023-01-22T07:44:53.311Z,14.45
2023-01-22T07:47:19.955Z,14.38
2023-01-22T07:49:46.588Z,14.32
2023-01-22T07:52:13.462Z,14.13
2023-01-22T07:54:40.065Z,14.95
2023-01-22T07:57:06.695Z,15.65
2023-01-22T07:59:35.316Z,13.82
2023-01-22T08:02:03.567Z,14.05
2023-01-22T08:04:30.524Z,14.15
2023-01-22T08:06:57.203Z,16.52
2023-01-22T08:09:25.560Z,15.05
2023-01-22T08:11:53.135Z,12.35
2023-01-22T08:14:20.274Z,14.77
2023-01-22T08:16:47.418Z,16.25
2023-01-22T08:19:14.641Z,14.65
2023-01-22T08:21:41.540Z,14.02
2023-01-22T08:24:10.272Z,19.73
2023-01-22T08:26:37.325Z,13.35
2023-01-22T08:29:07.274Z,14.27
2023-01-22T08:31:34.368Z,20.13
2023-01-22T08:34:01.502Z,25.45
2023-01-22T08:36:30.784Z,18.75
2023-01-22T08:38:57.488Z,15.73
2023-01-22T08:41:24.527Z,15.00
2023-01-22T08:43:52.955Z,14.05
2023-01-22T08:46:20.113Z,14.25
2023-01-22T08:48:48.776Z,14.75
2023-01-22T08:51:15.669Z,13.57
2023-01-22T08:53:42.618Z,12.32
2023-01-22T08:56:09.495Z,13.27
2023-01-22T08:58:36.289Z,11.38
2023-01-22T09:01:03.348Z,13.82
2023-01-22T09:03:31.173Z,14.90
2023-01-22T09:05:59.133Z,14.10
2023-01-22T09:08:25.793Z,13.57
2023-01-22T09:10:52.442Z,14.50
2023-01-22T09:13:19.082Z,14.63
2023-01-22T09:15:45.671Z,14.57
2023-01-22T09:18:12.427Z,14.88
2023-01-22T09:20:39.110Z,14.02
2023-01-22T09:23:05.778Z,13.23
2023-01-22T09:25:32.396Z,12.90
2023-01-22T09:28:00.203Z,13.98
2023-01-22T09:30:30.275Z,11.10
2023-01-22T09:32:57.344Z,11.70
2023-01-22T09:35:24.305Z,10.65
2023-01-22T09:37:50.985Z,11.15
2023-01-22T09:40:27.844Z,12.27
2023-01-22T09:43:20.690Z,10.40
2023-01-22T09:45:49.493Z,10.50
2023-01-22T09:48:18.620Z,9.45
2023-01-22T09:50:46.999Z,12.40
2023-01-22T09:53:17.602Z,10.90
2023-01-22T09:55:48.234Z,11.85
2023-01-22T09:58:20.519Z,11.57
2023-01-22T10:01:02.435Z,10.20
2023-01-22T10:03:53.642Z,9.65
2023-01-22T10:06:22.894Z,11.85
2023-01-22T10:09:12.203Z,14.27
2023-01-22T10:11:38.999Z,10.90
2023-01-22T10:14:09.125Z,10.40
2023-01-22T10:16:37.197Z,10.23
2023-01-22T10:19:41.879Z,11.48
2023-01-22T10:22:18.972Z,9.20
2023-01-22T10:24:45.819Z,9.75
2023-01-22T10:27:20.945Z,10.60
2023-01-22T10:30:20.085Z,10.15
2023-01-22T10:33:01.390Z,9.63
2023-01-22T10:35:30.657Z,11.02
2023-01-22T10:37:59.870Z,10.35
2023-01-22T10:40:32.802Z,9.68
2023-01-22T10:43:01.728Z,9.20
2023-01-22T10:45:28.509Z,13.95
2023-01-22T10:48:15.867Z,13.63
2023-01-22T10:50:43.943Z,11.73
2023-01-22T10:53:31.728Z,9.93
2023-01-22T10:56:01.088Z,7.65
2023-01-22T10:58:32.966Z,10.40
2023-01-22T11:01:06.798Z,10.07
2023-01-22T11:03:41.701Z,8.98
2023-01-22T11:06:24.182Z,8.20
2023-01-22T11:08:57.982Z,8.35
2023-01-22T11:11:35.276Z,8.20
2023-01-22T11:14:14.929Z,9.50
2023-01-22T11:16:43.684Z,9.20
2023-01-22T11:19:21.664Z,8.27
2023-01-22T11:21:57.514Z,9.13
2023-01-22T11:24:33.060Z,8.82
2023-01-22T11:27:27.958Z,10.38
2023-01-22T11:30:09.987Z,11.23
2023-01-22T11:32:50.208Z,8.23
2023-01-22T11:35:32.119Z,8.80
2023-01-22T11:38:13.753Z,9.05
2023-01-22T11:41:02.592Z,8.98
2023-01-22T11:44:06.812Z,9.60
2023-01-22T11:47:02.932Z,9.52
2023-01-22T11:50:16.122Z,8.75
2023-01-22T11:52:47.947Z,9.13
2023-01-22T11:55:29.678Z,8.88
2023-01-22T11:58:22.869Z,9.18
2023-01-22T12:01:14.058Z,9.00
2023-01-22T12:03:43.516Z,8.27
2023-01-22T12:06:37.382Z,8.77
2023-01-22T12:09:03.934Z,8.10
2023-01-22T12:11:41.794Z,8.05
2023-01-22T12:14:21.989Z,8.80
2023-01-22T12:17:16.578Z,9.57
2023-01-22T12:20:01.741Z,8.85
2023-01-22T12:22:38.033Z,8.40
2023-01-22T12:25:33.140Z,9.75
2023-01-22T12:28:16.934Z,9.48
2023-01-22T12:30:58.513Z,8.57
2023-01-22T12:33:29.559Z,8.40
2023-01-22T12:36:00.110Z,16.05
2023-01-22T12:38:58.841Z,10.20
2023-01-22T12:41:40.346Z,8.40
2023-01-22T12:44:21.198Z,9.25
2023-01-22T12:47:16.725Z,8.95
2023-01-22T12:49:49.013Z,8.55
2023-01-22T12:52:39.459Z,9.57
2023-01-22T12:55:28.472Z,9.07
2023-01-22T12:57:55.062Z,10.02
2023-01-22T13:00:34.522Z,9.43
2023-01-22T13:03:30.841Z,9.45
2023-01-22T13:05:59.179Z,11.00
2023-01-22T13:08:42.007Z,10.45
2023-01-22T13:11:37.215Z,11.13
2023-01-22T13:14:24.121Z,10.50
2023-01-22T13:16:57.179Z,11.63
2023-01-22T13:19:26.924Z,12.95
2023-01-22T13:21:56.805Z,11.75
2023-01-22T13:24:23.657Z,11.65
2023-01-22T13:27:00.318Z,9.82
2023-01-22T13:29:33.979Z,9.63
2023-01-22T13:32:14.883Z,11.68
2023-01-22T13:34:41.742Z,11.48
2023-01-22T13:37:24.319Z,18.50
2023-01-22T13:39:50.937Z,13.25
2023-01-22T13:42:17.788Z,12.20
2023-01-22T13:44:48.929Z,11.02
2023-01-22T13:47:35.980Z,9.95
2023-01-22T13:50:03.513Z,11.70
2023-01-22T13:52:33.927Z,13.73
2023-01-22T13:55:15.847Z,11.30
2023-01-22T13:57:54.762Z,9.32
2023-01-22T14:00:30.745Z,10.35
2023-01-22T14:02:58.530Z,9.50
2023-01-22T14:05:30.339Z,9.45
2023-01-22T14:08:11.626Z,9.65
2023-01-22T14:10:41.188Z,9.77
2023-01-22T14:13:10.614Z,7.95
2023-01-22T14:15:38.309Z,10.57
2023-01-22T14:18:10.453Z,19.05
2023-01-22T14:20:41.741Z,11.88
2023-01-22T14:23:08.542Z,9.10
2023-01-22T14:25:49.546Z,9.07
2023-01-22T14:28:16.931Z,8.80
2023-01-22T14:30:43.938Z,10.50
2023-01-22T14:33:23.243Z,9.65
2023-01-22T14:35:51.865Z,9.00
2023-01-22T14:38:21.644Z,9.43
2023-01-22T14:40:48.278Z,9.57
2023-01-22T14:43:16.026Z,10.50
2023-01-22T14:45:45.209Z,8.73
2023-01-22T14:48:14.348Z,9.23
2023-01-22T14:50:41.814Z,9.70
2023-01-22T14:53:10.137Z,9.35
2023-01-22T14:55:37.377Z,9.50
2023-01-22T14:58:04.279Z,10.10
2023-01-22T15:00:30.989Z,9.45
2023-01-22T15:02:58.983Z,8.32
2023-01-22T15:05:26.880Z,16.88
2023-01-22T15:07:53.685Z,9.32
2023-01-22T15:10:20.666Z,9.75
2023-01-22T15:12:52.516Z,9.25
2023-01-22T15:15:25.183Z,9.73
2023-01-22T15:17:53.896Z,9.20
2023-01-22T15:20:21.581Z,10.43
2023-01-22T15:22:49.632Z,10.15
2023-01-22T15:25:17.139Z,9.65
2023-01-22T15:27:44.582Z,8.73
2023-01-22T15:30:16.776Z,10.07
2023-01-22T15:32:43.660Z,9.90
2023-01-22T15:35:10.598Z,11.07
2023-01-22T15:37:37.630Z,11.00
2023-01-22T15:40:09.940Z,10.75
2023-01-22T15:42:36.992Z,10.60
2023-01-22T15:45:05.061Z,11.85
2023-01-22T15:47:31.750Z,17.95
2023-01-22T15:49:58.631Z,13.15
2023-01-22T15:52:31.461Z,10.90
2023-01-22T15:54:58.151Z,10.90
2023-01-22T15:57:24.818Z,11.18
2023-01-22T15:59:51.609Z,11.05
2023-01-22T16:02:25.213Z,12.82
2023-01-22T16:04:54.863Z,12.73
2023-01-22T16:07:24.189Z,11.25
2023-01-22T16:09:51.063Z,12.82
2023-01-22T16:12:18.482Z,13.88
2023-01-22T16:14:45.098Z,13.40
2023-01-22T16:17:11.687Z,13.30
2023-01-22T16:19:38.357Z,13.02
2023-01-22T16:22:05.464Z,11.60
2023-01-22T16:24:32.310Z,12.35
2023-01-22T16:27:00.071Z,12.85
2023-01-22T16:29:26.739Z,13.25
2023-01-22T16:31:53.479Z,14.30
2023-01-22T16:34:21.484Z,15.13
2023-01-22T16:36:49.111Z,15.18
2023-01-22T16:39:22.948Z,17.02
2023-01-22T16:41:50.977Z,21.05
2023-01-22T16:44:20.137Z,16.58
2023-01-22T16:46:49.477Z,20.73
2023-01-22T16:49:25.050Z,16.58
2023-01-22T16:51:57.008Z,14.60
2023-01-22T16:54:31.788Z,17.42
2023-01-22T16:57:01.121Z,17.15
2023-01-22T16:59:28.273Z,15.68
2023-01-22T17:01:58.139Z,19.05
2023-01-22T17:04:24.794Z,15.30
2023-01-22T17:06:54.192Z,22.65
2023-01-22T17:09:28.604Z,19.05
2023-01-22T17:11:57.922Z,16.73
2023-01-22T17:14:26.976Z,15.23
2023-01-22T17:16:53.860Z,15.18
2023-01-22T17:19:20.786Z,14.75
2023-01-22T17:21:51.496Z,15.63
2023-01-22T17:24:18.594Z,13.95
2023-01-22T17:26:47.926Z,18.90
2023-01-22T17:29:15.175Z,19.15
2023-01-22T17:31:42.114Z,21.70
2023-01-22T17:34:10.973Z,15.55
2023-01-22T17:36:39.140Z,15.73
2023-01-22T17:39:06.362Z,17.95
2023-01-22T17:41:33.059Z,17.38
2023-01-22T17:44:00.107Z,20.50
2023-01-22T17:46:31.382Z,17.75
2023-01-22T17:48:59.238Z,16.52
2023-01-22T17:51:28.134Z,18.63
2023-01-22T17:53:56.299Z,26.00
2023-01-22T17:56:35.266Z,20.70
2023-01-22T17:59:05.233Z,18.65
2023-01-22T18:01:34.146Z,15.15
2023-01-22T18:04:03.664Z,17.17
2023-01-22T18:06:31.033Z,16.55
2023-01-22T18:08:58.260Z,15.70
2023-01-22T18:11:27.831Z,17.00
2023-01-22T18:14:03.599Z,16.15
2023-01-22T18:16:33.532Z,15.38
2023-01-22T18:19:03.358Z,15.75
2023-01-22T18:21:30.500Z,15.70
2023-01-22T18:23:58.911Z,18.50
2023-01-22T18:26:26.609Z,14.55
2023-01-22T18:28:56.204Z,17.38
2023-01-22T18:31:27.281Z,19.70
2023-01-22T18:33:56.359Z,17.45
2023-01-22T18:36:26.068Z,15.32
2023-01-22T18:38:53.448Z,17.55
2023-01-22T18:41:24.971Z,15.85
2023-01-22T18:43:56.934Z,15.20
2023-01-22T18:46:26.473Z,16.75
2023-01-22T18:48:55.771Z,16.83
2023-01-22T18:51:23.057Z,16.08
2023-01-22T18:53:49.801Z,16.40
2023-01-22T18:56:16.526Z,13.77
2023-01-22T18:58:44.660Z,16.15
2023-01-22T19:01:25.823Z,17.73
2023-01-22T19:03:54.995Z,15.77
2023-01-22T19:06:24.526Z,16.20
2023-01-22T19:08:57.398Z,18.73
2023-01-22T19:11:24.840Z,19.77
2023-01-22T19:13:56.245Z,15.30
2023-01-22T19:16:24.642Z,20.17
2023-01-22T19:19:00.683Z,18.20
2023-01-22T19:21:28.178Z,16.77
2023-01-22T19:23:57.381Z,16.88
2023-01-22T19:26:28.413Z,18.25
2023-01-22T19:28:58.811Z,14.73
2023-01-22T19:31:28.568Z,19.70
2023-01-22T19:33:56.026Z,19.17
2023-01-22T19:36:24.434Z,17.05
2023-01-22T19:38:51.368Z,17.98
2023-01-22T19:41:18.134Z,20.48
2023-01-22T19:43:45.106Z,16.10
2023-01-22T19:46:13.503Z,17.05
2023-01-22T19:48:40.570Z,14.55
2023-01-22T19:51:10.641Z,14.43
2023-01-22T19:53:38.244Z,16.63
2023-01-22T19:56:13.361Z,16.60
2023-01-22T19:58:39.979Z,15.70
2023-01-22T20:01:11.454Z,14.45
2023-01-22T20:03:38.179Z,14.82
2023-01-22T20:06:07.079Z,16.40
2023-01-22T20:08:36.326Z,15.55
2023-01-22T20:11:08.184Z,15.65
2023-01-22T20:13:35.981Z,15.38
2023-01-22T20:16:03.277Z,16.42
2023-01-22T20:18:30.732Z,16.45
2023-01-22T20:20:59.665Z,16.25
2023-01-22T20:23:27.943Z,16.90
2023-01-22T20:25:55.970Z,16.35
2023-01-22T20:28:22.824Z,17.15
2023-01-22T20:31:00.911Z,16.75
2023-01-22T20:33:28.235Z,16.25
2023-01-22T20:35:56.450Z,14.85
2023-01-22T20:38:23.148Z,15.95
2023-01-22T20:40:49.945Z,16.83
2023-01-22T20:43:17.726Z,17.08
2023-01-22T20:45:44.477Z,22.08
2023-01-22T20:48:11.109Z,16.52
2023-01-22T20:50:41.963Z,17.02
2023-01-22T20:53:08.749Z,15.98
2023-01-22T20:55:35.356Z,16.60
2023-01-22T20:58:02.116Z,16.83
2023-01-22T21:00:31.935Z,16.00
2023-01-22T21:02:58.577Z,17.33
2023-01-22T21:05:25.221Z,20.77
2023-01-22T21:07:52.928Z,18.13
2023-01-22T21:10:19.982Z,17.90
2023-01-22T21:12:47.006Z,18.60
2023-01-22T21:15:13.640Z,19.25
2023-01-22T21:17:40.218Z,16.83
2023-01-22T21:20:07.384Z,19.45
2023-01-22T21:22:33.982Z,19.13
2023-01-22T21:25:00.608Z,18.95
2023-01-22T21:27:28.449Z,19.27
2023-01-22T21:29:55.275Z,17.27
2023-01-22T21:32:21.932Z,18.33
2023-01-22T21:34:48.606Z,18.02
2023-01-22T21:37:15.241Z,19.80
2023-01-22T21:39:44.960Z,16.63
2023-01-22T21:42:31.306Z,19.30
2023-01-22T21:45:16.331Z,19.13
2023-01-22T21:47:42.926Z,17.25
2023-01-22T21:50:10.307Z,20.58
2023-01-22T21:52:37.974Z,17.70
2023-01-22T21:55:05.156Z,22.13
2023-01-22T21:57:31.805Z,19.95
2023-01-22T21:59:58.386Z,17.00
2023-01-22T22:02:25.204Z,18.67
2023-01-22T22:04:51.841Z,18.00
2023-01-22T22:07:18.507Z,16.52
2023-01-22T22:09:45.148Z,16.80
2023-01-22T22:12:11.964Z,18.20
2023-01-22T22:14:38.641Z,18.98
2023-01-22T22:17:05.205Z,18.92
2023-01-22T22:19:31.987Z,18.20
2023-01-22T22:21:58.649Z,17.17
2023-01-22T22:24:25.409Z,17.35
2023-01-22T22:26:52.050Z,17.13
2023-01-22T22:29:18.753Z,17.52
2023-01-22T22:31:45.360Z,22.27
2023-01-22T22:34:11.973Z,15.77
2023-01-22T22:36:38.789Z,18.40
2023-01-22T22:39:06.491Z,19.58
2023-01-22T22:41:36.180Z,19.48
2023-01-22T22:44:03.149Z,16.88
2023-01-22T22:46:32.796Z,16.60
2023-01-22T22:49:01.151Z,16.98
2023-01-22T22:51:32.877Z,19.30
2023-01-22T22:54:12.823Z,18.25
2023-01-22T22:56:39.422Z,18.73
2023-01-22T22:59:06.596Z,19.65
2023-01-22T23:01:34.029Z,20.30
2023-01-22T23:04:01.147Z,16.38
2023-01-22T23:06:30.326Z,20.65
2023-01-22T23:08:58.648Z,21.35
2023-01-22T23:11:32.183Z,19.63
2023-01-22T23:14:02.713Z,20.10
2023-01-22T23:16:32.211Z,21.63
2023-01-22T23:19:01.158Z,21.15
2023-01-22T23:21:29.368Z,20.80
2023-01-22T23:23:57.030Z,22.42
2023-01-22T23:26:29.715Z,20.00
2023-01-22T23:28:58.673Z,21.42
2023-01-22T23:31:27.040Z,21.23
2023-01-22T23:33:54.991Z,20.38
2023-01-22T23:36:22.455Z,23.05
2023-01-22T23:38:49.504Z,21.23
2023-01-22T23:41:18.098Z,20.10
2023-01-22T23:43:45.548Z,20.27
2023-01-22T23:46:16.397Z,22.13
2023-01-22T23:48:43.604Z,21.65
2023-01-22T23:51:13.111Z,20.25
2023-01-22T23:53:41.385Z,21.15
2023-01-22T23:56:08.526Z,21.08
2023-01-22T23:58:35.708Z,19.92
